Página principal
METAR-TAF:

METAR-TAF

Aeroportos :

Aeroporto Port Bouet

Abidjan, Costa do Marfim

latitude: 05-15N, longitude: 003-56W, altura: 7 m

Observação actual do tempo

O boletim foi feito há 28 minutos, às 17:30 UTC
Vento 11 kt de sudoeste
Temperatura 27°C
Humidade 84%
Pressão 1010 hPa
Visibilidade 10 km ou mais
Nuvens dispersasa uma altura de 1200 ft

METAR: DIAP 181730Z 22011KT 9999 SCT012 27/24 Q1010 NOSIG

Hora: 17:58 (17:58 UTC)

Previsão

O boletim foi feito há 58 minutos, às 17:00 UTC
Previsão válida de 18 às 18 UTC a 19 às 24 UTC
Vento 8 kt de sudoeste
Visibilidade 10 km ou mais
Nuvens dispersasa uma altura de 1200 ft
Temporariamente
de 19 às 04 UTC a 19 às 08 UTC
Visibilidade: 4000 m
Nuvens fragmentadasa uma altura de 1200 ft
chuva
Temporariamente
de 19 às 15 UTC a 19 às 20 UTC
Nuvens fragmentadasa uma altura de 1200 ft

TAF: DIAP 181700Z 1818/1924 22008KT 9999 SCT012 TEMPO 1904/1908 4000 RA BKN012 TEMPO 1915/1920 BKN012

Observações e previsões do tempo de mais de 4000 aeroportos (mensagens METAR e TAF).

As estações disponíveis são os pontos amarelos e vermelhos sobre o mapa.

Mova o rato sobre o mapa para ver o nome da estação.

Depois clique no ponto para visualizar as observações e previsões meteorológicas.

Para alterar o mapa : clique nos botões verdes com uma cruz preta para aumentar o zoom; no botão verde com uma pitada de zoom; ou nas setas verdes para mapas adjacentes.


METAR-TAF: